createdAt,value
2022-10-23T00:02:50.554Z,88.59
2022-10-23T00:06:25.546Z,88.79
2022-10-23T00:09:48.507Z,88.43
2022-10-23T00:13:11.474Z,89.05
2022-10-23T00:16:33.492Z,89.12
2022-10-23T00:19:50.727Z,89.39
2022-10-23T00:23:04.334Z,88.28
2022-10-23T00:26:24.072Z,88.80
2022-10-23T00:29:52.478Z,88.95
2022-10-23T00:33:23.595Z,87.87
2022-10-23T00:36:46.450Z,87.38
2022-10-23T00:40:02.539Z,87.12
2022-10-23T00:43:21.815Z,87.52
2022-10-23T00:46:39.505Z,87.67
2022-10-23T00:50:07.483Z,88.13
2022-10-23T00:53:32.396Z,88.36
2022-10-23T00:56:54.466Z,89.33
2022-10-23T01:00:11.453Z,89.27
2022-10-23T01:03:35.354Z,89.24
2022-10-23T01:07:18.779Z,88.94
2022-10-23T01:10:44.902Z,89.11
2022-10-23T01:14:00.596Z,89.69
2022-10-23T01:17:17.751Z,90.25
2022-10-23T01:20:45.645Z,90.48
2022-10-23T01:24:26.742Z,90.77
2022-10-23T01:27:35.301Z,91.52
2022-10-23T01:30:44.792Z,91.48
2022-10-23T01:33:59.280Z,91.58
2022-10-23T01:37:07.717Z,89.96
2022-10-23T01:40:32.541Z,90.00
2022-10-23T01:43:52.483Z,90.35
2022-10-23T01:47:03.895Z,90.45
2022-10-23T01:50:13.371Z,91.16
2022-10-23T01:53:33.548Z,90.91
2022-10-23T01:56:58.048Z,91.27
2022-10-23T02:00:13.126Z,89.97
2022-10-23T02:03:42.468Z,90.03
2022-10-23T02:07:03.244Z,90.39
2022-10-23T02:10:26.202Z,90.68
2022-10-23T02:13:48.428Z,90.70
2022-10-23T02:17:42.640Z,90.50
2022-10-23T02:21:00.970Z,90.31
2022-10-23T02:24:16.154Z,90.71
2022-10-23T02:27:48.539Z,90.40
2022-10-23T02:30:58.431Z,90.08
2022-10-23T02:34:06.720Z,90.72
2022-10-23T02:37:26.306Z,90.79
2022-10-23T02:40:48.552Z,90.59
2022-10-23T02:44:38.717Z,90.26
2022-10-23T02:48:33.870Z,90.11
2022-10-23T02:51:43.255Z,90.11
2022-10-23T02:55:11.029Z,90.17
2022-10-23T02:59:17.374Z,90.23
2022-10-23T03:02:40.461Z,90.49
2022-10-23T03:06:07.283Z,90.57
2022-10-23T03:09:22.476Z,90.00
2022-10-23T03:12:40.480Z,90.16
2022-10-23T03:16:10.627Z,89.54
2022-10-23T03:19:21.590Z,89.44
2022-10-23T03:22:46.414Z,90.06
2022-10-23T03:26:10.186Z,90.11
2022-10-23T03:29:28.258Z,90.71
2022-10-23T03:32:50.134Z,90.58
2022-10-23T03:36:14.181Z,90.86
2022-10-23T03:39:39.160Z,91.38
2022-10-23T03:42:53.131Z,91.40
2022-10-23T03:46:02.283Z,91.42
2022-10-23T03:49:19.090Z,91.43
2022-10-23T03:52:29.826Z,92.24
2022-10-23T03:55:50.881Z,92.10
2022-10-23T03:59:03.187Z,92.23
2022-10-23T04:02:27.991Z,91.77
2022-10-23T04:05:58.506Z,92.15
2022-10-23T04:09:21.940Z,92.16
2022-10-23T04:12:25.361Z,92.29
2022-10-23T04:15:29.863Z,92.02
2022-10-23T04:18:43.527Z,91.92
2022-10-23T04:22:02.352Z,92.36
2022-10-23T04:25:24.868Z,93.06
2022-10-23T04:28:42.456Z,93.29
2022-10-23T04:32:06.944Z,93.53
2022-10-23T04:35:25.900Z,93.49
2022-10-23T04:38:52.864Z,93.12
2022-10-23T04:42:08.401Z,93.34
2022-10-23T04:45:24.357Z,92.82
2022-10-23T04:48:41.222Z,92.54
2022-10-23T04:52:22.818Z,92.64
2022-10-23T04:56:10.954Z,92.25
2022-10-23T04:59:45.987Z,92.06
2022-10-23T05:03:19.180Z,91.58
2022-10-23T05:06:44.194Z,91.67
2022-10-23T05:10:09.965Z,92.58
2022-10-23T05:13:27.908Z,92.45
2022-10-23T05:16:51.039Z,92.28
2022-10-23T05:19:56.816Z,92.79
2022-10-23T05:23:10.091Z,92.61
2022-10-23T05:26:18.031Z,92.97
2022-10-23T05:29:34.786Z,92.45
2022-10-23T05:32:45.635Z,92.44
2022-10-23T05:36:03.986Z,92.86
2022-10-23T05:39:31.732Z,92.61
2022-10-23T05:42:56.569Z,92.87
2022-10-23T05:46:23.490Z,93.71
2022-10-23T05:49:55.160Z,93.25
2022-10-23T05:53:09.518Z,93.14
2022-10-23T05:56:39.048Z,93.00
2022-10-23T05:59:45.845Z,92.89
2022-10-23T06:03:19.903Z,92.69
2022-10-23T06:06:35.494Z,92.04
2022-10-23T06:09:53.024Z,92.02
2022-10-23T06:13:07.367Z,91.76
2022-10-23T06:16:33.674Z,91.90
2022-10-23T06:20:07.706Z,92.36
2022-10-23T06:23:17.481Z,92.02
2022-10-23T06:26:49.709Z,92.06
2022-10-23T06:30:10.668Z,92.57
2022-10-23T06:33:34.617Z,92.47
2022-10-23T06:36:56.164Z,92.60
2022-10-23T06:40:16.521Z,92.67
2022-10-23T06:43:43.826Z,92.08
2022-10-23T06:47:03.906Z,93.07
2022-10-23T06:50:40.519Z,91.80
2022-10-23T06:53:50.389Z,91.58
2022-10-23T06:57:19.638Z,91.05
2022-10-23T07:00:34.856Z,91.66
2022-10-23T07:03:55.746Z,91.84
2022-10-23T07:07:21.665Z,91.99
2022-10-23T07:10:26.514Z,90.58
2022-10-23T07:13:42.663Z,89.52
2022-10-23T07:16:51.935Z,88.31
2022-10-23T07:19:56.709Z,87.74
2022-10-23T07:23:11.772Z,87.01
2022-10-23T07:26:27.727Z,87.57
2022-10-23T07:29:43.942Z,86.98
2022-10-23T07:32:47.466Z,87.04
2022-10-23T07:36:11.280Z,86.77
2022-10-23T07:39:15.639Z,85.99
2022-10-23T07:42:45.699Z,84.23
2022-10-23T07:46:03.103Z,84.99
2022-10-23T07:49:23.743Z,84.48
2022-10-23T07:52:39.720Z,84.78
2022-10-23T07:55:59.935Z,84.93
2022-10-23T07:59:37.150Z,84.83
2022-10-23T08:02:49.098Z,85.04
2022-10-23T08:06:10.673Z,84.26
2022-10-23T08:09:13.795Z,84.47
2022-10-23T08:12:22.844Z,83.69
2022-10-23T08:15:37.188Z,84.16
2022-10-23T08:18:56.155Z,84.67
2022-10-23T08:22:12.393Z,82.62
2022-10-23T08:25:28.883Z,81.92
2022-10-23T08:28:44.337Z,82.08
2022-10-23T08:32:06.730Z,80.64
2022-10-23T08:35:44.271Z,80.87
2022-10-23T08:39:15.055Z,82.37
2022-10-23T08:42:41.633Z,81.49
2022-10-23T08:45:59.402Z,80.46
2022-10-23T08:50:00.972Z,81.00
2022-10-23T08:53:11.362Z,80.20
2022-10-23T08:56:27.344Z,80.05
2022-10-23T08:59:40.342Z,79.73
2022-10-23T09:02:56.435Z,79.79
2022-10-23T09:06:25.818Z,79.94
2022-10-23T09:09:58.501Z,80.77
2022-10-23T09:13:36.155Z,79.92
2022-10-23T09:20:32.172Z,79.56
2022-10-23T09:23:48.756Z,78.86
2022-10-23T09:27:19.264Z,79.00
2022-10-23T09:30:42.839Z,79.49
2022-10-23T09:34:06.448Z,79.33
2022-10-23T09:37:28.207Z,78.38
2022-10-23T09:40:49.906Z,77.58
2022-10-23T09:44:44.075Z,77.43
2022-10-23T09:48:28.356Z,76.99
2022-10-23T09:51:45.358Z,76.60
2022-10-23T09:55:06.262Z,76.08
2022-10-23T09:58:28.519Z,75.91
2022-10-23T10:01:45.606Z,76.05
2022-10-23T10:05:38.847Z,74.81
2022-10-23T10:08:51.131Z,75.56
2022-10-23T10:12:47.206Z,75.50
2022-10-23T10:16:08.979Z,75.44
2022-10-23T10:19:39.099Z,75.12
2022-10-23T10:22:53.027Z,75.58
2022-10-23T10:26:31.277Z,75.55
2022-10-23T10:29:50.957Z,75.74
2022-10-23T10:33:36.699Z,75.00
2022-10-23T10:37:21.441Z,75.06
2022-10-23T10:40:41.548Z,75.05
2022-10-23T10:44:23.505Z,74.53
2022-10-23T10:48:08.042Z,74.20
2022-10-23T10:52:05.060Z,73.28
2022-10-23T10:55:22.136Z,73.06
2022-10-23T10:58:42.700Z,72.86
2022-10-23T11:02:04.343Z,72.22
2022-10-23T11:05:43.177Z,71.50
2022-10-23T11:08:57.924Z,72.27
2022-10-23T11:12:25.530Z,72.52
2022-10-23T11:15:41.357Z,72.56
2022-10-23T11:19:01.101Z,72.58
2022-10-23T11:22:17.543Z,72.48
2022-10-23T11:25:59.692Z,72.57
2022-10-23T11:30:01.848Z,72.64
2022-10-23T11:33:44.730Z,72.22
2022-10-23T11:37:05.283Z,71.44
2022-10-23T11:40:25.974Z,71.33
2022-10-23T11:43:55.920Z,70.96
2022-10-23T11:47:35.042Z,70.56
2022-10-23T11:50:55.149Z,70.31
2022-10-23T11:54:24.106Z,69.53
2022-10-23T11:58:20.549Z,70.06
2022-10-23T12:01:40.912Z,69.71
2022-10-23T12:04:53.617Z,68.88
2022-10-23T12:08:18.449Z,68.00
2022-10-23T12:11:46.829Z,68.93
2022-10-23T12:15:14.739Z,68.82
2022-10-23T12:18:22.345Z,68.22
2022-10-23T12:21:41.810Z,68.06
2022-10-23T12:25:17.653Z,68.91
2022-10-23T12:28:40.609Z,68.78
2022-10-23T12:32:06.014Z,68.96
2022-10-23T12:36:08.121Z,70.35
2022-10-23T12:39:49.073Z,70.57
2022-10-23T12:43:44.981Z,70.30
2022-10-23T12:46:57.702Z,69.62
2022-10-23T12:50:24.615Z,70.08
2022-10-23T12:53:40.611Z,70.33
2022-10-23T12:56:58.006Z,70.42
2022-10-23T13:00:15.611Z,69.62
2022-10-23T13:03:25.304Z,70.74
2022-10-23T13:06:31.734Z,70.24
2022-10-23T13:09:44.201Z,69.92
2022-10-23T13:13:17.696Z,70.05
2022-10-23T13:16:26.632Z,70.42
2022-10-23T13:19:37.308Z,71.04
2022-10-23T13:23:00.633Z,71.27
2022-10-23T13:26:21.601Z,71.86
2022-10-23T13:29:33.852Z,71.90
2022-10-23T13:32:38.426Z,72.09
2022-10-23T13:36:13.581Z,72.05
2022-10-23T13:39:28.474Z,71.66
2022-10-23T13:42:32.297Z,72.01
2022-10-23T13:45:50.912Z,72.19
2022-10-23T13:49:15.596Z,72.02
2022-10-23T13:52:40.667Z,72.10
2022-10-23T13:55:54.949Z,72.46
2022-10-23T13:59:03.817Z,73.30
2022-10-23T14:02:26.559Z,73.49
2022-10-23T14:05:42.965Z,73.83
2022-10-23T14:09:05.657Z,73.74
2022-10-23T14:12:42.321Z,73.52
2022-10-23T14:15:54.565Z,73.64
2022-10-23T14:19:17.568Z,74.02
2022-10-23T14:22:49.692Z,73.85
2022-10-23T14:26:07.720Z,74.14
2022-10-23T14:29:21.397Z,74.40
2022-10-23T14:32:37.489Z,74.46
2022-10-23T14:36:43.282Z,74.91
2022-10-23T14:40:35.761Z,75.16
2022-10-23T14:43:58.402Z,75.74
2022-10-23T14:47:19.172Z,75.84
2022-10-23T14:50:42.141Z,76.29
2022-10-23T14:54:05.342Z,75.93
2022-10-23T14:57:16.827Z,76.46
2022-10-23T15:00:39.341Z,76.68
2022-10-23T15:04:10.376Z,76.95
2022-10-23T15:07:31.440Z,77.54
2022-10-23T15:10:45.989Z,77.58
2022-10-23T15:13:49.607Z,77.38
2022-10-23T15:16:53.191Z,77.22
2022-10-23T15:20:00.921Z,77.25
2022-10-23T15:23:21.692Z,77.09
2022-10-23T15:26:27.969Z,77.31
2022-10-23T15:29:51.472Z,76.97
2022-10-23T15:32:55.832Z,77.06
2022-10-23T15:36:05.908Z,77.76
2022-10-23T15:39:32.484Z,77.67
2022-10-23T15:42:55.450Z,77.86
2022-10-23T15:46:17.261Z,78.02
2022-10-23T15:49:40.467Z,78.17
2022-10-23T15:53:02.500Z,78.88
2022-10-23T15:56:24.337Z,79.01
2022-10-23T15:59:31.824Z,79.52
2022-10-23T16:02:58.292Z,79.80
2022-10-23T16:06:29.599Z,79.79
2022-10-23T16:09:55.334Z,79.76
2022-10-23T16:12:58.594Z,80.01
2022-10-23T16:16:22.223Z,79.04
2022-10-23T16:20:01.307Z,79.72
2022-10-23T16:23:24.582Z,79.91
2022-10-23T16:26:36.203Z,80.66
2022-10-23T16:29:53.336Z,80.19
2022-10-23T16:33:21.343Z,78.82
2022-10-23T16:36:29.518Z,77.92
2022-10-23T16:40:05.216Z,77.40
2022-10-23T16:43:41.598Z,76.88
2022-10-23T16:47:07.296Z,74.97
2022-10-23T16:50:15.699Z,74.23
2022-10-23T16:53:37.459Z,73.96
2022-10-23T16:56:54.477Z,73.98
2022-10-23T17:00:16.202Z,74.08
2022-10-23T17:03:20.571Z,74.43
2022-10-23T17:06:31.549Z,73.96
2022-10-23T17:09:47.091Z,73.89
2022-10-23T17:12:59.881Z,74.34
2022-10-23T17:16:33.239Z,74.18
2022-10-23T17:19:53.894Z,74.18
2022-10-23T17:22:57.026Z,74.30
2022-10-23T17:26:20.034Z,74.43
2022-10-23T17:29:44.328Z,74.32
2022-10-23T17:33:07.959Z,74.53
2022-10-23T17:36:44.904Z,74.46
2022-10-23T17:39:56.353Z,74.47
2022-10-23T17:43:16.261Z,74.88
2022-10-23T17:46:21.163Z,74.54
2022-10-23T17:49:29.762Z,74.65
2022-10-23T17:52:53.995Z,74.86
2022-10-23T17:56:05.110Z,74.86
2022-10-23T17:59:14.930Z,75.04
2022-10-23T18:02:18.522Z,75.49
2022-10-23T18:05:31.962Z,75.51
2022-10-23T18:08:49.882Z,75.68
2022-10-23T18:11:53.158Z,75.89
2022-10-23T18:14:57.826Z,75.79
2022-10-23T18:18:07.869Z,76.10
2022-10-23T18:21:21.473Z,76.44
2022-10-23T18:24:44.908Z,76.45
2022-10-23T18:28:02.536Z,76.56
2022-10-23T18:31:14.242Z,77.17
2022-10-23T18:34:22.884Z,77.21
2022-10-23T18:37:35.524Z,77.48
2022-10-23T18:40:44.639Z,77.50
2022-10-23T18:44:03.245Z,77.72
2022-10-23T18:47:27.418Z,77.69
2022-10-23T18:50:48.890Z,78.50
2022-10-23T18:54:07.369Z,78.32
2022-10-23T18:57:23.955Z,77.97
2022-10-23T19:00:48.026Z,78.46
2022-10-23T19:04:10.912Z,78.44
2022-10-23T19:07:14.236Z,78.53
2022-10-23T19:10:22.142Z,79.59
2022-10-23T19:13:39.123Z,79.70
2022-10-23T19:17:32.969Z,79.42
2022-10-23T19:20:50.298Z,78.75
2022-10-23T19:24:02.121Z,78.63
2022-10-23T19:27:06.634Z,79.03
2022-10-23T19:30:25.808Z,78.95
2022-10-23T19:33:48.452Z,79.02
2022-10-23T19:36:53.791Z,79.14
2022-10-23T19:39:57.634Z,79.59
2022-10-23T19:43:08.689Z,79.74
2022-10-23T19:46:19.060Z,79.54
2022-10-23T19:49:23.976Z,79.20
2022-10-23T19:52:32.327Z,79.76
2022-10-23T19:55:43.661Z,79.89
2022-10-23T19:58:47.750Z,79.79
2022-10-23T20:02:10.869Z,79.97
2022-10-23T20:05:47.870Z,80.22
2022-10-23T20:09:13.932Z,79.86
2022-10-23T20:12:29.497Z,80.06
2022-10-23T20:15:53.789Z,80.04
2022-10-23T20:19:10.794Z,79.87
2022-10-23T20:22:34.590Z,80.44
2022-10-23T20:26:05.585Z,80.10
2022-10-23T20:29:22.727Z,80.28
2022-10-23T20:32:43.966Z,80.29
2022-10-23T20:36:07.689Z,80.64
2022-10-23T20:39:25.579Z,80.81
2022-10-23T20:42:48.805Z,80.52
2022-10-23T20:46:20.504Z,80.80
2022-10-23T20:49:43.063Z,81.62
2022-10-23T20:53:05.635Z,81.86
2022-10-23T20:56:33.544Z,81.72
2022-10-23T20:59:50.597Z,81.39
2022-10-23T21:03:06.860Z,82.03
2022-10-23T21:06:27.786Z,81.67
2022-10-23T21:09:51.673Z,81.80
2022-10-23T21:12:57.547Z,82.03
2022-10-23T21:16:26.228Z,81.50
2022-10-23T21:19:53.553Z,81.93
2022-10-23T21:23:17.768Z,82.93
2022-10-23T21:26:39.698Z,82.87
2022-10-23T21:29:59.584Z,82.23
2022-10-23T21:33:02.756Z,82.18
2022-10-23T21:36:15.389Z,82.22
2022-10-23T21:39:28.635Z,82.48
2022-10-23T21:42:50.316Z,82.72
2022-10-23T21:46:11.725Z,82.85
2022-10-23T21:49:34.442Z,82.68
2022-10-23T21:52:58.320Z,82.28
2022-10-23T21:56:35.554Z,82.75
2022-10-23T21:59:49.472Z,82.15
2022-10-23T22:03:06.414Z,81.34
2022-10-23T22:06:30.159Z,81.83
2022-10-23T22:09:47.439Z,82.02
2022-10-23T22:13:01.284Z,82.38
2022-10-23T22:16:20.963Z,82.30
2022-10-23T22:19:36.647Z,82.36
2022-10-23T22:22:40.331Z,82.49
2022-10-23T22:25:51.129Z,82.47
2022-10-23T22:29:13.849Z,82.49
2022-10-23T22:32:29.617Z,82.66
2022-10-23T22:35:35.828Z,82.83
2022-10-23T22:38:46.111Z,82.74
2022-10-23T22:41:53.797Z,82.65
2022-10-23T22:44:57.405Z,82.58
2022-10-23T22:48:00.124Z,82.91
2022-10-23T22:51:16.923Z,82.91
2022-10-23T22:54:42.322Z,83.18
2022-10-23T22:57:51.780Z,82.90
2022-10-23T23:01:19.054Z,83.50
2022-10-23T23:04:38.706Z,83.78
2022-10-23T23:08:03.319Z,84.25
2022-10-23T23:11:31.344Z,84.60
2022-10-23T23:14:54.085Z,84.99
2022-10-23T23:17:57.246Z,85.60
2022-10-23T23:21:05.631Z,85.22
2022-10-23T23:24:11.697Z,84.89
2022-10-23T23:27:16.794Z,84.63
2022-10-23T23:30:32.332Z,84.65
2022-10-23T23:33:38.794Z,84.63
2022-10-23T23:36:42.441Z,85.02
2022-10-23T23:39:51.820Z,85.08
2022-10-23T23:43:03.003Z,85.45
2022-10-23T23:46:09.905Z,85.22
2022-10-23T23:49:16.652Z,84.69
2022-10-23T23:52:19.902Z,84.49
2022-10-23T23:55:23.482Z,84.57
2022-10-23T23:58:37.962Z,84.66
